sensor_id;sensor_type;location;lat;lon;timestamp;pressure;altitude;pressure_sealevel;temperature;humidity
74403;BME280;62837;51.082;13.744;2023-11-22T00:01:11;101062.92;;;2.75;77.13
74403;BME280;62837;51.082;13.744;2023-11-22T00:03:42;101066.87;;;2.76;77.08
74403;BME280;62837;51.082;13.744;2023-11-22T00:06:13;101057.16;;;2.76;76.96
74403;BME280;62837;51.082;13.744;2023-11-22T00:08:44;101063.61;;;2.80;77.01
74403;BME280;62837;51.082;13.744;2023-11-22T00:11:16;101065.55;;;2.79;77.19
74403;BME280;62837;51.082;13.744;2023-11-22T00:13:47;101062.14;;;2.82;77.08
74403;BME280;62837;51.082;13.744;2023-11-22T00:16:19;101066.89;;;2.82;76.81
74403;BME280;62837;51.082;13.744;2023-11-22T00:18:50;101076.60;;;2.80;76.50
74403;BME280;62837;51.082;13.744;2023-11-22T00:21:21;101081.45;;;2.70;76.36
74403;BME280;62837;51.082;13.744;2023-11-22T00:23:52;101080.65;;;2.68;76.70
74403;BME280;62837;51.082;13.744;2023-11-22T00:26:23;101075.23;;;2.70;77.08
74403;BME280;62837;51.082;13.744;2023-11-22T00:28:57;101069.35;;;2.70;76.90
74403;BME280;62837;51.082;13.744;2023-11-22T00:31:29;101074.46;;;2.69;76.50
74403;BME280;62837;51.082;13.744;2023-11-22T00:34:00;101079.05;;;2.67;76.73
74403;BME280;62837;51.082;13.744;2023-11-22T00:36:31;101080.47;;;2.60;76.45
74403;BME280;62837;51.082;13.744;2023-11-22T00:39:04;101081.60;;;2.54;76.76
74403;BME280;62837;51.082;13.744;2023-11-22T00:41:36;101080.18;;;2.51;76.57
74403;BME280;62837;51.082;13.744;2023-11-22T00:44:07;101086.20;;;2.45;76.33
74403;BME280;62837;51.082;13.744;2023-11-22T00:46:38;101092.65;;;2.42;76.81
74403;BME280;62837;51.082;13.744;2023-11-22T00:49:09;101096.48;;;2.42;76.63
74403;BME280;62837;51.082;13.744;2023-11-22T00:51:40;101101.42;;;2.40;76.39
74403;BME280;62837;51.082;13.744;2023-11-22T00:54:11;101106.02;;;2.34;76.28
74403;BME280;62837;51.082;13.744;2023-11-22T00:56:42;101106.34;;;2.37;76.50
74403;BME280;62837;51.082;13.744;2023-11-22T00:59:13;101103.89;;;2.44;76.70
74403;BME280;62837;51.082;13.744;2023-11-22T01:01:44;101106.14;;;2.46;76.52
74403;BME280;62837;51.082;13.744;2023-11-22T01:04:15;101113.17;;;2.44;76.70
74403;BME280;62837;51.082;13.744;2023-11-22T01:06:46;101116.16;;;2.42;76.36
74403;BME280;62837;51.082;13.744;2023-11-22T01:09:17;101124.27;;;2.39;76.44
74403;BME280;62837;51.082;13.744;2023-11-22T01:11:48;101125.11;;;2.30;76.37
74403;BME280;62837;51.082;13.744;2023-11-22T01:14:19;101127.17;;;2.31;77.20
74403;BME280;62837;51.082;13.744;2023-11-22T01:16:51;101128.17;;;2.33;76.77
74403;BME280;62837;51.082;13.744;2023-11-22T01:19:22;101135.98;;;2.39;77.08
74403;BME280;62837;51.082;13.744;2023-11-22T01:21:53;101139.13;;;2.43;76.78
74403;BME280;62837;51.082;13.744;2023-11-22T01:24:24;101148.48;;;2.43;77.21
74403;BME280;62837;51.082;13.744;2023-11-22T01:26:57;101155.23;;;2.45;76.67
74403;BME280;62837;51.082;13.744;2023-11-22T01:29:28;101162.86;;;2.51;76.87
74403;BME280;62837;51.082;13.744;2023-11-22T01:31:59;101163.39;;;2.54;77.44
74403;BME280;62837;51.082;13.744;2023-11-22T01:34:30;101166.12;;;2.50;76.63
74403;BME280;62837;51.082;13.744;2023-11-22T01:37:04;101164.84;;;2.43;77.03
74403;BME280;62837;51.082;13.744;2023-11-22T01:39:35;101163.89;;;2.34;76.58
74403;BME280;62837;51.082;13.744;2023-11-22T01:42:06;101162.35;;;2.32;77.12
74403;BME280;62837;51.082;13.744;2023-11-22T01:44:37;101169.08;;;2.30;76.92
74403;BME280;62837;51.082;13.744;2023-11-22T01:47:09;101174.54;;;2.27;77.08
74403;BME280;62837;51.082;13.744;2023-11-22T01:49:40;101172.13;;;2.25;77.11
74403;BME280;62837;51.082;13.744;2023-11-22T01:52:10;101175.42;;;2.27;77.18
74403;BME280;62837;51.082;13.744;2023-11-22T01:54:41;101176.10;;;2.28;76.96
74403;BME280;62837;51.082;13.744;2023-11-22T01:57:13;101178.30;;;2.24;77.30
74403;BME280;62837;51.082;13.744;2023-11-22T01:59:46;101177.91;;;2.23;77.21
74403;BME280;62837;51.082;13.744;2023-11-22T02:02:18;101178.33;;;2.26;77.46
74403;BME280;62837;51.082;13.744;2023-11-22T02:04:49;101175.92;;;2.32;77.42
74403;BME280;62837;51.082;13.744;2023-11-22T02:07:20;101170.13;;;2.31;76.93
74403;BME280;62837;51.082;13.744;2023-11-22T02:09:51;101168.11;;;2.32;77.19
74403;BME280;62837;51.082;13.744;2023-11-22T02:12:23;101169.77;;;2.31;76.69
74403;BME280;62837;51.082;13.744;2023-11-22T02:14:54;101166.97;;;2.30;76.99
74403;BME280;62837;51.082;13.744;2023-11-22T02:17:25;101168.81;;;2.26;76.41
74403;BME280;62837;51.082;13.744;2023-11-22T02:19:56;101159.65;;;2.17;76.82
74403;BME280;62837;51.082;13.744;2023-11-22T02:22:27;101163.92;;;2.24;76.94
74403;BME280;62837;51.082;13.744;2023-11-22T02:24:58;101170.95;;;2.30;76.61
74403;BME280;62837;51.082;13.744;2023-11-22T02:27:30;101180.58;;;2.28;76.61
74403;BME280;62837;51.082;13.744;2023-11-22T02:30:01;101190.58;;;2.30;76.64
74403;BME280;62837;51.082;13.744;2023-11-22T02:32:35;101202.04;;;2.34;76.42
74403;BME280;62837;51.082;13.744;2023-11-22T02:35:07;101200.61;;;2.31;76.09
74403;BME280;62837;51.082;13.744;2023-11-22T02:37:38;101199.23;;;2.28;76.26
74403;BME280;62837;51.082;13.744;2023-11-22T02:40:16;101197.70;;;2.29;75.96
74403;BME280;62837;51.082;13.744;2023-11-22T02:42:48;101203.80;;;2.26;76.15
74403;BME280;62837;51.082;13.744;2023-11-22T02:45:26;101207.90;;;2.24;76.40
74403;BME280;62837;51.082;13.744;2023-11-22T02:47:58;101211.19;;;2.23;76.01
74403;BME280;62837;51.082;13.744;2023-11-22T02:50:31;101216.00;;;2.24;75.70
74403;BME280;62837;51.082;13.744;2023-11-22T02:53:04;101219.89;;;2.20;75.79
74403;BME280;62837;51.082;13.744;2023-11-22T02:55:35;101209.92;;;2.17;75.99
74403;BME280;62837;51.082;13.744;2023-11-22T02:58:05;101211.02;;;2.17;75.67
74403;BME280;62837;51.082;13.744;2023-11-22T03:00:36;101218.66;;;2.10;75.62
74403;BME280;62837;51.082;13.744;2023-11-22T03:03:07;101226.13;;;2.06;76.35
74403;BME280;62837;51.082;13.744;2023-11-22T03:05:40;101221.72;;;2.06;75.92
74403;BME280;62837;51.082;13.744;2023-11-22T03:08:11;101217.27;;;2.10;76.55
74403;BME280;62837;51.082;13.744;2023-11-22T03:10:43;101215.25;;;2.16;76.25
74403;BME280;62837;51.082;13.744;2023-11-22T03:13:14;101213.13;;;2.21;76.07
74403;BME280;62837;51.082;13.744;2023-11-22T03:15:45;101214.41;;;2.22;75.89
74403;BME280;62837;51.082;13.744;2023-11-22T03:18:16;101221.66;;;2.23;76.26
74403;BME280;62837;51.082;13.744;2023-11-22T03:20:47;101236.13;;;2.28;75.82
74403;BME280;62837;51.082;13.744;2023-11-22T03:23:24;101246.31;;;2.27;75.38
74403;BME280;62837;51.082;13.744;2023-11-22T03:25:56;101253.09;;;2.27;75.33
74403;BME280;62837;51.082;13.744;2023-11-22T03:28:28;101256.70;;;2.30;75.81
74403;BME280;62837;51.082;13.744;2023-11-22T03:30:59;101264.18;;;2.32;75.18
74403;BME280;62837;51.082;13.744;2023-11-22T03:33:32;101265.56;;;2.28;75.05
74403;BME280;62837;51.082;13.744;2023-11-22T03:36:03;101261.17;;;2.24;75.27
74403;BME280;62837;51.082;13.744;2023-11-22T03:38:34;101266.27;;;2.21;75.16
74403;BME280;62837;51.082;13.744;2023-11-22T03:41:05;101272.10;;;2.19;75.58
74403;BME280;62837;51.082;13.744;2023-11-22T03:43:36;101286.24;;;2.22;75.58
74403;BME280;62837;51.082;13.744;2023-11-22T03:46:07;101290.71;;;2.27;75.60
74403;BME280;62837;51.082;13.744;2023-11-22T03:48:40;101292.70;;;2.31;76.07
74403;BME280;62837;51.082;13.744;2023-11-22T03:51:11;101294.02;;;2.32;75.26
74403;BME280;62837;51.082;13.744;2023-11-22T03:53:43;101296.31;;;2.27;75.72
74403;BME280;62837;51.082;13.744;2023-11-22T03:56:14;101299.65;;;2.20;75.53
74403;BME280;62837;51.082;13.744;2023-11-22T03:58:45;101304.84;;;2.17;75.82
74403;BME280;62837;51.082;13.744;2023-11-22T04:01:15;101310.30;;;2.22;75.61
74403;BME280;62837;51.082;13.744;2023-11-22T04:03:48;101320.09;;;2.23;75.70
74403;BME280;62837;51.082;13.744;2023-11-22T04:06:19;101329.92;;;2.21;75.62
74403;BME280;62837;51.082;13.744;2023-11-22T04:08:50;101332.37;;;2.22;76.03
74403;BME280;62837;51.082;13.744;2023-11-22T04:11:22;101334.66;;;2.24;76.20
74403;BME280;62837;51.082;13.744;2023-11-22T04:13:53;101333.99;;;2.26;75.99
74403;BME280;62837;51.082;13.744;2023-11-22T04:16:24;101343.48;;;2.20;75.88
74403;BME280;62837;51.082;13.744;2023-11-22T04:18:56;101351.63;;;2.10;75.75
74403;BME280;62837;51.082;13.744;2023-11-22T04:21:27;101355.46;;;2.04;75.68
74403;BME280;62837;51.082;13.744;2023-11-22T04:23:58;101362.16;;;2.01;76.11
74403;BME280;62837;51.082;13.744;2023-11-22T04:26:29;101358.29;;;1.92;76.01
74403;BME280;62837;51.082;13.744;2023-11-22T04:29:00;101368.64;;;1.90;75.65
74403;BME280;62837;51.082;13.744;2023-11-22T04:31:31;101372.46;;;1.86;76.08
74403;BME280;62837;51.082;13.744;2023-11-22T04:34:02;101376.85;;;1.79;75.82
74403;BME280;62837;51.082;13.744;2023-11-22T04:36:33;101381.86;;;1.78;76.53
74403;BME280;62837;51.082;13.744;2023-11-22T04:39:04;101385.41;;;1.74;76.28
74403;BME280;62837;51.082;13.744;2023-11-22T04:41:36;101394.07;;;1.69;76.17
74403;BME280;62837;51.082;13.744;2023-11-22T04:44:07;101395.50;;;1.68;76.64
74403;BME280;62837;51.082;13.744;2023-11-22T04:46:38;101393.41;;;1.70;76.56
74403;BME280;62837;51.082;13.744;2023-11-22T04:49:09;101403.61;;;1.74;76.51
74403;BME280;62837;51.082;13.744;2023-11-22T04:51:40;101410.11;;;1.81;76.60
74403;BME280;62837;51.082;13.744;2023-11-22T04:54:13;101402.14;;;1.80;76.21
74403;BME280;62837;51.082;13.744;2023-11-22T04:56:43;101397.59;;;1.80;75.94
74403;BME280;62837;51.082;13.744;2023-11-22T04:59:14;101393.58;;;1.83;75.42
74403;BME280;62837;51.082;13.744;2023-11-22T05:01:45;101397.60;;;1.84;75.45
74403;BME280;62837;51.082;13.744;2023-11-22T05:04:18;101405.81;;;1.86;75.48
74403;BME280;62837;51.082;13.744;2023-11-22T05:06:49;101415.44;;;1.86;75.36
74403;BME280;62837;51.082;13.744;2023-11-22T05:09:20;101425.77;;;1.86;75.25
74403;BME280;62837;51.082;13.744;2023-11-22T05:11:50;101427.84;;;1.88;75.59
74403;BME280;62837;51.082;13.744;2023-11-22T05:14:21;101424.94;;;1.93;75.28
74403;BME280;62837;51.082;13.744;2023-11-22T05:16:53;101428.34;;;1.96;76.43
74403;BME280;62837;51.082;13.744;2023-11-22T05:19:26;101431.91;;;1.95;75.53
74403;BME280;62837;51.082;13.744;2023-11-22T05:21:57;101433.40;;;1.95;75.48
74403;BME280;62837;51.082;13.744;2023-11-22T05:24:28;101436.98;;;1.93;75.11
74403;BME280;62837;51.082;13.744;2023-11-22T05:26:59;101432.98;;;1.95;75.12
74403;BME280;62837;51.082;13.744;2023-11-22T05:29:30;101436.66;;;1.93;74.99
74403;BME280;62837;51.082;13.744;2023-11-22T05:32:12;101432.61;;;1.95;75.07
74403;BME280;62837;51.082;13.744;2023-11-22T05:34:43;101426.65;;;2.00;74.86
74403;BME280;62837;51.082;13.744;2023-11-22T05:37:13;101433.60;;;2.02;74.52
74403;BME280;62837;51.082;13.744;2023-11-22T05:39:44;101431.19;;;1.97;74.68
74403;BME280;62837;51.082;13.744;2023-11-22T05:42:15;101434.79;;;1.95;74.62
74403;BME280;62837;51.082;13.744;2023-11-22T05:44:47;101436.86;;;1.94;74.52
74403;BME280;62837;51.082;13.744;2023-11-22T05:47:19;101435.65;;;1.92;74.43
74403;BME280;62837;51.082;13.744;2023-11-22T05:49:50;101442.48;;;1.88;74.37
74403;BME280;62837;51.082;13.744;2023-11-22T05:52:21;101450.66;;;1.86;74.97
74403;BME280;62837;51.082;13.744;2023-11-22T05:54:53;101450.64;;;1.91;74.99
74403;BME280;62837;51.082;13.744;2023-11-22T05:57:23;101456.46;;;1.94;74.43
74403;BME280;62837;51.082;13.744;2023-11-22T05:59:54;101455.67;;;1.87;74.41
74403;BME280;62837;51.082;13.744;2023-11-22T06:02:25;101461.05;;;1.81;74.53
74403;BME280;62837;51.082;13.744;2023-11-22T06:04:56;101456.31;;;1.73;74.20
74403;BME280;62837;51.082;13.744;2023-11-22T06:07:27;101454.17;;;1.70;74.76
74403;BME280;62837;51.082;13.744;2023-11-22T06:09:58;101458.02;;;1.69;74.73
74403;BME280;62837;51.082;13.744;2023-11-22T06:12:32;101466.41;;;1.72;75.04
74403;BME280;62837;51.082;13.744;2023-11-22T06:15:05;101473.23;;;1.75;74.84
74403;BME280;62837;51.082;13.744;2023-11-22T06:17:35;101468.27;;;1.70;74.52
74403;BME280;62837;51.082;13.744;2023-11-22T06:20:09;101473.74;;;1.66;75.10
74403;BME280;62837;51.082;13.744;2023-11-22T06:22:40;101476.83;;;1.66;74.97
74403;BME280;62837;51.082;13.744;2023-11-22T06:25:12;101479.69;;;1.69;74.98
74403;BME280;62837;51.082;13.744;2023-11-22T06:27:43;101485.92;;;1.70;74.80
74403;BME280;62837;51.082;13.744;2023-11-22T06:30:15;101484.99;;;1.69;75.14
74403;BME280;62837;51.082;13.744;2023-11-22T06:32:45;101495.05;;;1.79;74.98
74403;BME280;62837;51.082;13.744;2023-11-22T06:35:16;101503.73;;;1.85;74.72
74403;BME280;62837;51.082;13.744;2023-11-22T06:37:47;101511.92;;;1.85;74.49
74403;BME280;62837;51.082;13.744;2023-11-22T06:40:18;101509.98;;;1.86;74.88
74403;BME280;62837;51.082;13.744;2023-11-22T06:42:50;101511.46;;;1.90;74.49
74403;BME280;62837;51.082;13.744;2023-11-22T06:45:21;101508.60;;;1.93;74.88
74403;BME280;62837;51.082;13.744;2023-11-22T06:47:51;101515.22;;;1.91;75.06
74403;BME280;62837;51.082;13.744;2023-11-22T06:50:23;101527.98;;;1.88;74.81
74403;BME280;62837;51.082;13.744;2023-11-22T06:52:54;101542.96;;;1.85;75.25
74403;BME280;62837;51.082;13.744;2023-11-22T06:55:25;101563.09;;;1.85;75.41
74403;BME280;62837;51.082;13.744;2023-11-22T06:57:56;101573.08;;;1.84;75.03
74403;BME280;62837;51.082;13.744;2023-11-22T07:00:27;101570.34;;;1.86;75.47
74403;BME280;62837;51.082;13.744;2023-11-22T07:02:58;101561.10;;;1.85;75.34
74403;BME280;62837;51.082;13.744;2023-11-22T07:05:29;101566.70;;;1.83;74.96
74403;BME280;62837;51.082;13.744;2023-11-22T07:08:00;101571.66;;;1.81;74.80
74403;BME280;62837;51.082;13.744;2023-11-22T07:10:31;101563.60;;;1.77;75.27
74403;BME280;62837;51.082;13.744;2023-11-22T07:13:03;101555.39;;;1.73;75.30
74403;BME280;62837;51.082;13.744;2023-11-22T07:15:35;101556.23;;;1.69;75.48
74403;BME280;62837;51.082;13.744;2023-11-22T07:18:06;101549.83;;;1.68;75.87
74403;BME280;62837;51.082;13.744;2023-11-22T07:20:37;101546.91;;;1.71;76.30
74403;BME280;62837;51.082;13.744;2023-11-22T07:23:08;101545.56;;;1.77;76.24
74403;BME280;62837;51.082;13.744;2023-11-22T07:25:43;101546.87;;;1.84;76.17
74403;BME280;62837;51.082;13.744;2023-11-22T07:28:14;101538.14;;;1.88;75.75
74403;BME280;62837;51.082;13.744;2023-11-22T07:30:45;101540.51;;;1.92;75.22
74403;BME280;62837;51.082;13.744;2023-11-22T07:33:18;101550.08;;;1.97;75.52
74403;BME280;62837;51.082;13.744;2023-11-22T07:35:50;101553.29;;;1.99;75.65
74403;BME280;62837;51.082;13.744;2023-11-22T07:38:21;101560.38;;;1.99;75.06
74403;BME280;62837;51.082;13.744;2023-11-22T07:40:53;101570.02;;;1.97;75.09
74403;BME280;62837;51.082;13.744;2023-11-22T07:43:24;101574.83;;;2.43;87.46
74403;BME280;62837;51.082;13.744;2023-11-22T07:45:55;101577.68;;;3.32;90.29
74403;BME280;62837;51.082;13.744;2023-11-22T07:48:27;101592.63;;;3.46;80.69
74403;BME280;62837;51.082;13.744;2023-11-22T07:50:58;101596.58;;;3.53;79.30
74403;BME280;62837;51.082;13.744;2023-11-22T07:53:29;101600.30;;;3.46;75.70
74403;BME280;62837;51.082;13.744;2023-11-22T07:56:04;101604.35;;;3.36;74.84
74403;BME280;62837;51.082;13.744;2023-11-22T07:58:35;101607.04;;;3.24;75.02
74403;BME280;62837;51.082;13.744;2023-11-22T08:01:07;101608.08;;;3.22;75.55
74403;BME280;62837;51.082;13.744;2023-11-22T08:03:43;101610.09;;;3.21;76.93
74403;BME280;62837;51.082;13.744;2023-11-22T08:06:17;101615.63;;;3.22;75.95
74403;BME280;62837;51.082;13.744;2023-11-22T08:08:48;101624.23;;;3.20;74.99
74403;BME280;62837;51.082;13.744;2023-11-22T08:11:20;101631.95;;;3.15;74.52
74403;BME280;62837;51.082;13.744;2023-11-22T08:13:51;101638.59;;;3.08;74.25
74403;BME280;62837;51.082;13.744;2023-11-22T08:16:24;101649.71;;;3.02;73.68
74403;BME280;62837;51.082;13.744;2023-11-22T08:18:56;101649.52;;;2.90;73.62
74403;BME280;62837;51.082;13.744;2023-11-22T08:21:27;101648.23;;;2.84;73.86
74403;BME280;62837;51.082;13.744;2023-11-22T08:23:58;101655.65;;;2.79;74.06
74403;BME280;62837;51.082;13.744;2023-11-22T08:26:30;101654.75;;;3.25;87.44
74403;BME280;62837;51.082;13.744;2023-11-22T08:29:00;101649.45;;;4.39;92.50
74403;BME280;62837;51.082;13.744;2023-11-22T08:31:31;101649.41;;;4.88;84.43
74403;BME280;62837;51.082;13.744;2023-11-22T08:34:04;101642.02;;;4.99;77.16
74403;BME280;62837;51.082;13.744;2023-11-22T08:36:36;101639.88;;;4.75;73.26
74403;BME280;62837;51.082;13.744;2023-11-22T08:39:08;101638.67;;;4.41;71.77
74403;BME280;62837;51.082;13.744;2023-11-22T08:41:40;101645.94;;;4.06;71.11
74403;BME280;62837;51.082;13.744;2023-11-22T08:44:11;101652.77;;;3.77;70.74
74403;BME280;62837;51.082;13.744;2023-11-22T08:46:41;101651.69;;;3.46;70.74
74403;BME280;62837;51.082;13.744;2023-11-22T08:49:12;101650.11;;;3.26;71.36
74403;BME280;62837;51.082;13.744;2023-11-22T08:51:44;101650.39;;;3.15;71.57
74403;BME280;62837;51.082;13.744;2023-11-22T08:54:15;101642.95;;;3.04;71.81
74403;BME280;62837;51.082;13.744;2023-11-22T08:56:47;101639.98;;;2.94;71.94
74403;BME280;62837;51.082;13.744;2023-11-22T08:59:18;101639.66;;;2.86;71.76
74403;BME280;62837;51.082;13.744;2023-11-22T09:01:49;101639.58;;;2.74;71.31
74403;BME280;62837;51.082;13.744;2023-11-22T09:04:20;101644.09;;;2.64;71.70
74403;BME280;62837;51.082;13.744;2023-11-22T09:06:53;101648.02;;;2.59;72.16
74403;BME280;62837;51.082;13.744;2023-11-22T09:09:26;101645.72;;;2.56;71.78
74403;BME280;62837;51.082;13.744;2023-11-22T09:12:01;101646.48;;;2.47;71.38
74403;BME280;62837;51.082;13.744;2023-11-22T09:14:31;101644.64;;;2.35;71.65
74403;BME280;62837;51.082;13.744;2023-11-22T09:17:03;101646.32;;;2.19;71.51
74403;BME280;62837;51.082;13.744;2023-11-22T09:19:35;101659.34;;;2.06;71.84
74403;BME280;62837;51.082;13.744;2023-11-22T09:22:07;101665.96;;;2.01;72.25
74403;BME280;62837;51.082;13.744;2023-11-22T09:24:38;101665.63;;;2.02;72.68
74403;BME280;62837;51.082;13.744;2023-11-22T09:27:09;101677.20;;;2.07;73.48
74403;BME280;62837;51.082;13.744;2023-11-22T09:29:44;101682.64;;;2.14;73.65
74403;BME280;62837;51.082;13.744;2023-11-22T09:32:15;101685.66;;;2.18;72.90
74403;BME280;62837;51.082;13.744;2023-11-22T09:34:46;101681.76;;;2.21;72.31
74403;BME280;62837;51.082;13.744;2023-11-22T09:37:18;101675.82;;;2.21;71.90
74403;BME280;62837;51.082;13.744;2023-11-22T09:39:48;101682.53;;;2.24;71.76
74403;BME280;62837;51.082;13.744;2023-11-22T09:42:20;101673.89;;;2.25;71.78
74403;BME280;62837;51.082;13.744;2023-11-22T09:44:50;101672.58;;;2.30;71.62
74403;BME280;62837;51.082;13.744;2023-11-22T09:47:22;101655.92;;;2.29;71.54
74403;BME280;62837;51.082;13.744;2023-11-22T09:49:56;101662.36;;;2.31;71.29
74403;BME280;62837;51.082;13.744;2023-11-22T09:52:29;101660.80;;;2.32;71.29
74403;BME280;62837;51.082;13.744;2023-11-22T09:55:05;101658.23;;;2.37;71.20
74403;BME280;62837;51.082;13.744;2023-11-22T09:57:39;101659.74;;;2.42;70.68
74403;BME280;62837;51.082;13.744;2023-11-22T10:00:20;101655.05;;;2.47;68.70
74403;BME280;62837;51.082;13.744;2023-11-22T10:02:52;101653.81;;;2.50;68.50
74403;BME280;62837;51.082;13.744;2023-11-22T10:05:23;101656.42;;;2.51;67.86
74403;BME280;62837;51.082;13.744;2023-11-22T10:07:54;101654.65;;;2.53;67.62
74403;BME280;62837;51.082;13.744;2023-11-22T10:10:26;101657.27;;;2.61;67.97
74403;BME280;62837;51.082;13.744;2023-11-22T10:13:03;101654.82;;;2.68;68.78
74403;BME280;62837;51.082;13.744;2023-11-22T10:15:35;101647.52;;;2.84;72.34
74403;BME280;62837;51.082;13.744;2023-11-22T10:18:06;101654.60;;;2.91;70.54
74403;BME280;62837;51.082;13.744;2023-11-22T10:20:41;101660.56;;;2.88;69.78
74403;BME280;62837;51.082;13.744;2023-11-22T10:23:13;101654.30;;;2.81;69.79
74403;BME280;62837;51.082;13.744;2023-11-22T10:25:49;101664.79;;;2.83;69.04
74403;BME280;62837;51.082;13.744;2023-11-22T10:28:22;101654.98;;;2.69;68.44
74403;BME280;62837;51.082;13.744;2023-11-22T10:30:54;101654.41;;;2.62;68.75
74403;BME280;62837;51.082;13.744;2023-11-22T10:33:24;101654.02;;;2.59;68.39
74403;BME280;62837;51.082;13.744;2023-11-22T10:35:58;101652.67;;;2.61;68.88
74403;BME280;62837;51.082;13.744;2023-11-22T10:38:29;101648.24;;;2.65;68.48
74403;BME280;62837;51.082;13.744;2023-11-22T10:41:00;101639.73;;;2.67;68.35
74403;BME280;62837;51.082;13.744;2023-11-22T10:43:32;101638.27;;;2.70;68.80
74403;BME280;62837;51.082;13.744;2023-11-22T10:46:05;101632.29;;;2.68;68.95
74403;BME280;62837;51.082;13.744;2023-11-22T10:48:39;101623.34;;;2.68;68.60
74403;BME280;62837;51.082;13.744;2023-11-22T10:51:14;101623.91;;;2.67;68.71
74403;BME280;62837;51.082;13.744;2023-11-22T10:53:49;101633.36;;;2.69;68.44
74403;BME280;62837;51.082;13.744;2023-11-22T10:56:24;101636.54;;;2.71;68.65
74403;BME280;62837;51.082;13.744;2023-11-22T10:58:58;101643.33;;;2.73;68.71
74403;BME280;62837;51.082;13.744;2023-11-22T11:01:33;101640.26;;;2.76;68.79
74403;BME280;62837;51.082;13.744;2023-11-22T11:04:09;101639.42;;;2.78;68.42
74403;BME280;62837;51.082;13.744;2023-11-22T11:06:46;101642.79;;;2.78;68.56
74403;BME280;62837;51.082;13.744;2023-11-22T11:09:21;101663.98;;;2.76;67.84
74403;BME280;62837;51.082;13.744;2023-11-22T11:11:57;101677.28;;;2.69;67.56
74403;BME280;62837;51.082;13.744;2023-11-22T11:14:29;101688.31;;;2.69;68.34
74403;BME280;62837;51.082;13.744;2023-11-22T11:17:01;101694.85;;;2.71;68.28
74403;BME280;62837;51.082;13.744;2023-11-22T11:19:32;101701.48;;;2.73;68.25
74403;BME280;62837;51.082;13.744;2023-11-22T11:22:06;101704.88;;;2.73;67.53
74403;BME280;62837;51.082;13.744;2023-11-22T11:24:41;101703.20;;;2.68;66.91
74403;BME280;62837;51.082;13.744;2023-11-22T11:27:14;101710.91;;;2.63;67.47
74403;BME280;62837;51.082;13.744;2023-11-22T11:29:49;101709.83;;;2.55;67.21
74403;BME280;62837;51.082;13.744;2023-11-22T11:32:31;101711.45;;;2.46;66.94
74403;BME280;62837;51.082;13.744;2023-11-22T11:35:04;101701.15;;;2.36;67.54
74403;BME280;62837;51.082;13.744;2023-11-22T11:37:38;101689.41;;;2.36;67.23
74403;BME280;62837;51.082;13.744;2023-11-22T11:40:30;101688.29;;;2.40;66.87
74403;BME280;62837;51.082;13.744;2023-11-22T11:43:02;101691.36;;;2.43;66.21
74403;BME280;62837;51.082;13.744;2023-11-22T11:45:37;101700.24;;;2.38;66.13
74403;BME280;62837;51.082;13.744;2023-11-22T11:48:08;101706.00;;;2.29;66.30
74403;BME280;62837;51.082;13.744;2023-11-22T11:50:39;101706.81;;;2.27;66.46
74403;BME280;62837;51.082;13.744;2023-11-22T11:53:11;101703.43;;;2.23;66.69
74403;BME280;62837;51.082;13.744;2023-11-22T11:55:42;101707.19;;;2.22;66.33
74403;BME280;62837;51.082;13.744;2023-11-22T11:58:15;101711.98;;;2.21;66.35
74403;BME280;62837;51.082;13.744;2023-11-22T12:00:46;101707.83;;;2.29;69.13
74403;BME280;62837;51.082;13.744;2023-11-22T12:03:17;101707.04;;;2.33;66.70
74403;BME280;62837;51.082;13.744;2023-11-22T12:05:51;101704.61;;;2.35;66.13
74403;BME280;62837;51.082;13.744;2023-11-22T12:08:22;101699.67;;;2.32;65.36
74403;BME280;62837;51.082;13.744;2023-11-22T12:10:57;101703.75;;;2.30;65.01
74403;BME280;62837;51.082;13.744;2023-11-22T12:13:28;101706.71;;;2.26;64.95
74403;BME280;62837;51.082;13.744;2023-11-22T12:16:00;101696.71;;;2.20;64.06
74403;BME280;62837;51.082;13.744;2023-11-22T12:18:40;101690.43;;;2.13;64.45
74403;BME280;62837;51.082;13.744;2023-11-22T12:21:13;101685.94;;;2.14;64.73
74403;BME280;62837;51.082;13.744;2023-11-22T12:23:45;101680.98;;;2.15;64.04
74403;BME280;62837;51.082;13.744;2023-11-22T12:26:19;101671.39;;;2.18;64.19
74403;BME280;62837;51.082;13.744;2023-11-22T12:28:51;101666.96;;;2.26;64.32
74403;BME280;62837;51.082;13.744;2023-11-22T12:31:34;101656.44;;;2.34;64.40
74403;BME280;62837;51.082;13.744;2023-11-22T12:34:06;101656.55;;;2.37;63.90
74403;BME280;62837;51.082;13.744;2023-11-22T12:36:39;101666.11;;;2.38;64.05
74403;BME280;62837;51.082;13.744;2023-11-22T12:39:11;101651.39;;;2.35;63.45
74403;BME280;62837;51.082;13.744;2023-11-22T12:41:48;101642.46;;;2.35;63.20
74403;BME280;62837;51.082;13.744;2023-11-22T12:44:48;101626.95;;;2.29;63.34
74403;BME280;62837;51.082;13.744;2023-11-22T12:47:33;101639.97;;;2.43;63.35
74403;BME280;62837;51.082;13.744;2023-11-22T12:50:08;101645.05;;;2.41;63.14
74403;BME280;62837;51.082;13.744;2023-11-22T12:52:59;101641.55;;;2.36;61.88
74403;BME280;62837;51.082;13.744;2023-11-22T12:55:38;101631.94;;;2.29;62.30
74403;BME280;62837;51.082;13.744;2023-11-22T12:58:10;101630.90;;;2.28;62.44
74403;BME280;62837;51.082;13.744;2023-11-22T13:00:43;101625.39;;;2.30;62.87
74403;BME280;62837;51.082;13.744;2023-11-22T13:03:14;101629.33;;;2.36;62.54
74403;BME280;62837;51.082;13.744;2023-11-22T13:05:46;101624.84;;;2.41;62.02
74403;BME280;62837;51.082;13.744;2023-11-22T13:08:18;101622.63;;;2.35;61.94
74403;BME280;62837;51.082;13.744;2023-11-22T13:10:50;101629.48;;;2.32;61.94
74403;BME280;62837;51.082;13.744;2023-11-22T13:13:24;101635.09;;;2.34;62.44
74403;BME280;62837;51.082;13.744;2023-11-22T13:15:57;101627.86;;;2.34;61.96